Terminal Aerodrome Forecast
Issued by NWS

Home | Current Version | Previous Version | Graphics & Text | Print | Product List | Glossary On
Versions: 1 2 3 4 5 6 7 8 9 10 11 12 13 14 15 16 17 18
000
FTUS41 KCLE 181100
TAFFDY
TAF
KFDY 181122Z 1812/1912 30012KT P6SM SCT025 BKN040
      TEMPO 1812/1814 BKN025
     FM181400 32014G22KT P6SM OVC025
     FM182200 32012KT P6SM SCT025 OVC050
      TEMPO 1822/1902 BKN025
     FM190200 32006KT P6SM SCT050 BKN100
     FM190600 31006KT P6SM SKC=

USA.gov is the U.S. government's official web portal to all federal, state and local government web resources and services.